Time;durP1;ratioP1;P1;durP2;ratioP2;P2;SDS_P1;SDS_P2;PMS_P1;PMS_P2;Temp;Humidity;BMP_temperature;BMP_pressure;BME280_temperature;BME280_humidity;BME280_pressure;Samples;Min_cycle;Max_cycle;Signal;HPM_P1;HPM_P2
2023/06/10 00:00:45;;;;;;;8.77;8.00;;;;;;;22.51;51.92;101180.09;5025455;28;20040;-74
2023/06/10 00:03:10;;;;;;;10.25;8.65;;;;;;;22.45;52.29;101179.81;5025182;28;20025;-74
2023/06/10 00:05:38;;;;;;;10.02;8.43;;;;;;;22.37;52.10;101177.84;5025373;28;20109;-76
2023/06/10 00:08:07;;;;;;;8.95;8.05;;;;;;;22.32;52.61;101175.59;5013022;28;20029;-76
2023/06/10 00:10:33;;;;;;;11.43;7.85;;;;;;;22.27;52.76;101180.56;5024942;28;20029;-75
2023/06/10 00:12:59;;;;;;;9.57;8.65;;;;;;;22.19;53.08;101180.44;5021553;28;20568;-70
2023/06/10 00:15:24;;;;;;;9.02;8.15;;;;;;;22.11;53.38;101180.28;5025109;28;20036;-75
2023/06/10 00:17:52;;;;;;;10.98;8.57;;;;;;;22.16;53.30;101175.34;5025065;28;20025;-72
2023/06/10 00:20:18;;;;;;;11.00;9.10;;;;;;;22.08;53.28;101178.72;5024517;28;20124;-69
2023/06/10 00:22:45;;;;;;;9.35;8.45;;;;;;;22.09;53.30;101183.16;5024176;28;20105;-72
2023/06/10 00:25:11;;;;;;;9.57;8.68;;;;;;;21.98;53.95;101190.56;5024176;28;20507;-72
2023/06/10 00:27:36;;;;;;;9.68;8.52;;;;;;;21.98;53.73;101190.56;5022089;28;20039;-74
2023/06/10 00:30:06;;;;;;;9.15;8.25;;;;;;;21.94;54.04;101192.69;5024269;28;20258;-69
2023/06/10 00:32:32;;;;;;;10.02;8.20;;;;;;;21.89;54.49;101185.00;5024678;28;20468;-70
2023/06/10 00:34:58;;;;;;;9.57;8.57;;;;;;;21.81;54.17;101179.44;5024560;28;20029;-73
2023/06/10 00:37:23;;;;;;;10.00;8.63;;;;;;;21.85;54.34;101185.44;5023829;28;20032;-74
2023/06/10 00:39:52;;;;;;;9.35;8.25;;;;;;;21.82;54.44;101192.03;5024383;28;20031;-70
2023/06/10 00:42:17;;;;;;;9.20;8.40;;;;;;;21.79;54.68;101188.72;5021349;28;20025;-76
2023/06/10 00:44:42;;;;;;;8.95;8.05;;;;;;;21.79;54.58;101183.31;5022874;28;20506;-71
2023/06/10 00:47:08;;;;;;;9.02;8.13;;;;;;;21.87;54.57;101191.59;5013586;28;20037;-77
2023/06/10 00:49:34;;;;;;;13.38;9.48;;;;;;;21.87;54.52;101200.56;5024575;28;20092;-73
2023/06/10 00:52:01;;;;;;;10.20;8.98;;;;;;;21.81;54.90;101193.00;4998439;28;20025;-76
2023/06/10 00:54:27;;;;;;;10.10;9.00;;;;;;;21.83;54.78;101190.16;5023362;28;20029;-72
2023/06/10 00:56:53;;;;;;;9.93;8.95;;;;;;;21.74;54.96;101182.88;5021639;28;20135;-74
2023/06/10 00:59:18;;;;;;;9.13;8.32;;;;;;;21.72;54.79;101193.00;5021139;28;20021;-73
2023/06/10 01:01:46;;;;;;;9.43;8.48;;;;;;;21.65;54.98;101192.69;5022899;28;20030;-73
2023/06/10 01:04:13;;;;;;;9.13;8.23;;;;;;;21.62;55.12;101184.88;5023822;28;20029;-78
2023/06/10 01:06:49;;;;;;;9.88;8.60;;;;;;;21.61;55.39;101191.25;5001823;28;20051;-70
2023/06/10 01:09:23;;;;;;;9.55;8.52;;;;;;;21.48;55.70;101187.97;4995480;28;20064;-73
2023/06/10 01:12:02;;;;;;;9.48;8.45;;;;;;;21.33;55.58;101188.38;5016173;28;20026;-75
2023/06/10 01:14:29;;;;;;;9.07;8.27;;;;;;;21.27;56.58;101188.91;5022229;28;20021;-76
2023/06/10 01:16:54;;;;;;;9.52;8.68;;;;;;;21.23;56.13;101186.59;5020959;28;20061;-72
2023/06/10 01:19:24;;;;;;;10.13;9.02;;;;;;;21.16;56.68;101189.03;5012382;28;20499;-68
2023/06/10 01:21:51;;;;;;;10.80;8.88;;;;;;;21.13;56.73;101194.72;5023695;28;20025;-75
2023/06/10 01:24:18;;;;;;;10.20;9.18;;;;;;;21.02;56.93;101183.97;5024058;28;20053;-71
2023/06/10 01:26:45;;;;;;;9.75;8.80;;;;;;;20.95;56.92;101196.38;5023754;28;20028;-76
2023/06/10 01:29:18;;;;;;;10.02;9.02;;;;;;;20.79;57.49;101195.00;5022668;28;20068;-76
2023/06/10 01:31:51;;;;;;;11.10;9.07;;;;;;;20.68;57.78;101181.56;5023109;28;20037;-76
2023/06/10 01:34:19;;;;;;;9.65;8.63;;;;;;;20.56;57.79;101190.75;5005379;28;20476;-74
2023/06/10 01:36:47;;;;;;;11.20;9.05;;;;;;;20.52;58.11;101198.28;5002800;28;20526;-77
2023/06/10 01:39:15;;;;;;;9.73;8.82;;;;;;;20.48;58.38;101201.34;5022736;28;20021;-70
2023/06/10 01:41:40;;;;;;;10.82;9.18;;;;;;;20.50;58.24;101194.88;5030897;28;20453;-75
2023/06/10 01:44:05;;;;;;;11.20;9.18;;;;;;;20.40;58.40;101199.34;5023372;28;20033;-72
2023/06/10 01:46:31;;;;;;;9.98;8.98;;;;;;;20.37;58.49;101202.31;5019716;28;20037;-76
2023/06/10 01:48:56;;;;;;;20.48;9.23;;;;;;;20.19;58.93;101202.06;5018307;28;20216;-73
2023/06/10 01:51:22;;;;;;;9.88;8.73;;;;;;;20.16;58.77;101191.50;5018885;28;20503;-74
2023/06/10 01:53:47;;;;;;;10.18;9.25;;;;;;;20.11;59.26;101194.59;5023447;28;20037;-77
2023/06/10 01:56:17;;;;;;;10.20;9.15;;;;;;;20.04;59.57;101196.09;5022591;28;20108;-73
2023/06/10 01:58:43;;;;;;;9.80;8.90;;;;;;;20.05;59.27;101188.84;5022795;28;20041;-72
2023/06/10 02:01:09;;;;;;;10.48;9.45;;;;;;;19.92;59.44;101199.84;5023455;28;20492;-72
2023/06/10 02:03:35;;;;;;;10.32;9.20;;;;;;;19.88;59.90;101201.94;5022211;28;20483;-72
2023/06/10 02:06:00;;;;;;;10.70;9.60;;;;;;;19.88;59.87;101206.47;5020160;28;20044;-72
2023/06/10 02:08:27;;;;;;;10.43;9.43;;;;;;;19.79;60.10;101199.16;5013897;28;20034;-74
2023/06/10 02:10:53;;;;;;;12.02;9.32;;;;;;;19.73;60.24;101197.84;5018746;28;20515;-74
2023/06/10 02:13:18;;;;;;;10.40;9.40;;;;;;;19.65;60.61;101203.03;5023902;28;20032;-71
2023/06/10 02:15:43;;;;;;;10.38;9.48;;;;;;;19.57;60.78;101205.47;5022297;28;20227;-72
2023/06/10 02:18:10;;;;;;;10.45;9.43;;;;;;;19.59;60.57;101195.38;5017573;28;20382;-74
2023/06/10 02:20:35;;;;;;;11.68;10.68;;;;;;;19.61;60.91;101202.41;5022149;28;20033;-72
2023/06/10 02:23:00;;;;;;;11.07;10.07;;;;;;;19.53;60.87;101202.16;5013166;28;20033;-77
2023/06/10 02:25:26;;;;;;;11.32;10.23;;;;;;;19.49;61.23;101205.25;5016844;28;20096;-69
2023/06/10 02:27:54;;;;;;;11.77;10.20;;;;;;;19.48;60.98;101208.91;5018084;28;20179;-68
2023/06/10 02:30:19;;;;;;;13.75;10.50;;;;;;;19.35;61.76;101212.66;5021298;28;20041;-76
2023/06/10 02:32:47;;;;;;;11.10;10.10;;;;;;;19.38;61.38;101214.22;5021100;28;20075;-68
2023/06/10 02:35:14;;;;;;;10.57;9.57;;;;;;;19.35;61.69;101209.06;5021327;28;20025;-73
2023/06/10 02:37:39;;;;;;;11.00;9.80;;;;;;;19.35;61.84;101211.75;5021321;28;20120;-75
2023/06/10 02:40:08;;;;;;;10.48;9.57;;;;;;;19.25;62.11;101211.66;5017747;28;20105;-75
2023/06/10 02:42:34;;;;;;;11.63;10.32;;;;;;;19.20;62.17;101208.50;5017088;28;20025;-74
2023/06/10 02:45:00;;;;;;;10.85;9.80;;;;;;;19.18;62.64;101210.44;5021559;28;20091;-71
2023/06/10 02:47:26;;;;;;;11.35;10.30;;;;;;;19.13;62.79;101213.50;5021539;28;20025;-76
2023/06/10 02:49:54;;;;;;;11.30;10.30;;;;;;;19.12;62.70;101211.81;5021945;28;20415;-69
2023/06/10 02:52:20;;;;;;;11.40;10.30;;;;;;;19.10;63.03;101212.91;5015910;28;20042;-73
2023/06/10 02:54:46;;;;;;;11.02;10.02;;;;;;;19.09;63.11;101209.34;5019718;28;20100;-71
2023/06/10 02:57:11;;;;;;;11.52;10.52;;;;;;;19.02;63.23;101204.56;5017587;28;20197;-74
2023/06/10 02:59:36;;;;;;;11.65;10.55;;;;;;;18.99;63.76;101208.38;5021580;28;20032;-74
2023/06/10 03:02:02;;;;;;;11.23;10.20;;;;;;;18.87;64.20;101207.53;5021746;28;20037;-72
2023/06/10 03:04:28;;;;;;;11.13;10.13;;;;;;;18.83;64.36;101211.44;5025602;28;20159;-73
2023/06/10 03:06:54;;;;;;;12.10;11.00;;;;;;;18.84;64.51;101207.75;5013901;28;20029;-75
2023/06/10 03:09:20;;;;;;;11.57;10.48;;;;;;;18.84;64.50;101210.47;5026178;28;20368;-73
2023/06/10 03:11:45;;;;;;;12.23;11.10;;;;;;;18.79;64.51;101207.28;5024898;28;20116;-70
2023/06/10 03:14:10;;;;;;;12.55;11.23;;;;;;;18.73;65.31;101212.28;5022734;28;20697;-71
2023/06/10 03:16:39;;;;;;;11.93;10.82;;;;;;;18.69;65.17;101211.66;5020457;28;20451;-77
2023/06/10 03:19:07;;;;;;;13.90;11.30;;;;;;;18.66;65.39;101212.75;5008063;28;20029;-70
2023/06/10 03:21:32;;;;;;;12.05;10.88;;;;;;;18.68;65.64;101218.00;5026521;28;20025;-71
2023/06/10 03:23:57;;;;;;;12.77;11.50;;;;;;;18.69;65.69;101208.97;5024965;28;20052;-73
2023/06/10 03:26:23;;;;;;;12.57;11.38;;;;;;;18.67;65.97;101221.69;5025744;28;20107;-73
2023/06/10 03:28:48;;;;;;;12.23;11.13;;;;;;;18.70;65.97;101216.09;5025918;28;20155;-72
2023/06/10 03:31:14;;;;;;;13.70;12.30;;;;;;;18.69;66.03;101219.75;5025858;28;20506;-76
2023/06/10 03:33:39;;;;;;;12.73;11.60;;;;;;;18.63;66.43;101222.91;5025934;28;20040;-75
2023/06/10 03:36:04;;;;;;;14.20;12.60;;;;;;;18.64;66.36;101224.63;5023243;28;20017;-73
2023/06/10 03:38:30;;;;;;;12.90;11.70;;;;;;;18.54;66.67;101224.50;5025176;28;20018;-77
2023/06/10 03:40:55;;;;;;;13.18;11.80;;;;;;;18.54;66.94;101227.19;5026386;28;20021;-74
2023/06/10 03:43:21;;;;;;;13.10;11.80;;;;;;;18.55;67.19;101228.06;5007557;28;20079;-73
2023/06/10 03:45:49;;;;;;;13.88;12.48;;;;;;;18.52;67.19;101233.69;5024802;28;20056;-73
2023/06/10 03:48:14;;;;;;;15.70;12.27;;;;;;;18.53;67.37;101225.50;5024539;28;20343;-77
2023/06/10 03:50:40;;;;;;;13.02;11.90;;;;;;;18.53;67.75;101241.66;5007113;28;20029;-75
2023/06/10 03:53:05;;;;;;;13.05;11.90;;;;;;;18.55;67.96;101238.84;5021929;28;20480;-74
2023/06/10 03:55:31;;;;;;;13.40;12.10;;;;;;;18.53;67.95;101227.34;5025053;28;20376;-78
2023/06/10 03:57:56;;;;;;;13.48;12.18;;;;;;;18.49;67.99;101239.31;5024328;28;20065;-75
2023/06/10 04:00:21;;;;;;;13.52;12.13;;;;;;;18.48;68.61;101234.94;5023264;28;20048;-74
2023/06/10 04:02:49;;;;;;;13.52;12.23;;;;;;;18.48;68.68;101237.63;5023346;28;20025;-72
2023/06/10 04:05:20;;;;;;;13.98;12.68;;;;;;;18.52;68.08;101239.06;5018164;28;20030;-74
2023/06/10 04:07:45;;;;;;;13.98;12.57;;;;;;;18.48;68.25;101232.22;5021145;28;20030;-73
2023/06/10 04:10:11;;;;;;;14.18;12.70;;;;;;;18.49;68.42;101242.03;5023328;28;20021;-73
2023/06/10 04:12:37;;;;;;;13.55;12.25;;;;;;;18.47;69.17;101238.56;5002467;28;20068;-76
2023/06/10 04:15:04;;;;;;;13.88;12.60;;;;;;;18.58;69.02;101247.53;5021792;28;20037;-72
2023/06/10 04:17:29;;;;;;;13.98;12.57;;;;;;;18.51;69.32;101240.91;5023084;28;20095;-75
2023/06/10 04:19:55;;;;;;;14.40;12.90;;;;;;;18.57;69.26;101244.97;5023656;28;20025;-75
2023/06/10 04:22:21;;;;;;;14.73;13.32;;;;;;;18.60;69.09;101250.09;5022223;28;20307;-72
2023/06/10 04:24:46;;;;;;;14.85;13.50;;;;;;;18.54;69.60;101250.59;5003834;28;20045;-74
2023/06/10 04:27:12;;;;;;;14.38;12.85;;;;;;;18.54;69.63;101248.75;5006156;28;20123;-77
2023/06/10 04:29:38;;;;;;;15.20;13.75;;;;;;;18.53;70.07;101256.97;5023313;28;20424;-75
2023/06/10 04:32:06;;;;;;;14.50;13.10;;;;;;;18.60;69.97;101258.19;5024703;28;20024;-73
2023/06/10 04:34:38;;;;;;;14.57;13.30;;;;;;;18.57;70.20;101258.47;5024068;28;20034;-70
2023/06/10 04:37:04;;;;;;;15.27;13.80;;;;;;;18.52;70.44;101258.81;5025284;28;20108;-73
2023/06/10 04:39:30;;;;;;;15.32;13.73;;;;;;;18.64;70.16;101255.16;5024106;28;20025;-73
2023/06/10 04:41:56;;;;;;;15.00;13.70;;;;;;;18.61;70.62;101254.53;5011834;28;20029;-74
2023/06/10 04:44:21;;;;;;;15.20;13.80;;;;;;;18.60;70.40;101253.69;4998032;28;20033;-69
2023/06/10 04:46:47;;;;;;;14.88;13.52;;;;;;;18.61;71.16;101250.00;5023024;28;20245;-73
2023/06/10 04:49:14;;;;;;;14.48;13.07;;;;;;;18.70;70.73;101253.84;5022583;28;20201;-70
2023/06/10 04:51:39;;;;;;;14.70;13.32;;;;;;;18.74;70.56;101254.47;5021695;28;20029;-75
2023/06/10 04:54:05;;;;;;;15.88;14.38;;;;;;;18.84;70.09;101255.47;5022245;28;20030;-70
2023/06/10 04:56:31;;;;;;;15.23;13.63;;;;;;;18.83;71.01;101260.00;5021241;28;20103;-73
2023/06/10 04:58:57;;;;;;;15.25;13.65;;;;;;;18.87;70.74;101266.88;5023148;28;20108;-75
2023/06/10 05:01:22;;;;;;;15.73;14.30;;;;;;;18.90;70.75;101258.53;5022498;28;20029;-73
2023/06/10 05:03:47;;;;;;;16.10;14.52;;;;;;;19.01;70.71;101259.50;5021978;28;20033;-76
2023/06/10 05:06:13;;;;;;;15.20;13.75;;;;;;;18.98;70.54;101251.66;5021330;28;20025;-71
2023/06/10 05:08:38;;;;;;;15.55;13.95;;;;;;;19.07;70.57;101256.34;5023858;28;20037;-71
2023/06/10 05:11:03;;;;;;;14.80;13.40;;;;;;;19.24;69.70;101263.06;5023933;28;20104;-73
2023/06/10 05:13:29;;;;;;;15.50;13.90;;;;;;;19.26;69.67;101258.41;5023663;28;20506;-71
2023/06/10 05:15:54;;;;;;;15.60;13.98;;;;;;;19.35;69.32;101263.03;5007810;28;20033;-73
2023/06/10 05:18:20;;;;;;;15.50;14.02;;;;;;;19.44;68.97;101264.13;5024092;28;20061;-75
2023/06/10 05:20:46;;;;;;;15.95;14.32;;;;;;;19.49;69.03;101261.94;5021528;28;20108;-73
2023/06/10 05:23:12;;;;;;;16.23;14.68;;;;;;;19.59;68.39;101265.59;5023074;28;20021;-72
2023/06/10 05:25:37;;;;;;;17.20;15.38;;;;;;;19.62;68.08;101262.69;5021191;28;20072;-73
2023/06/10 05:28:03;;;;;;;14.80;13.50;;;;;;;19.71;68.03;101261.91;5022430;28;20112;-76
2023/06/10 05:30:28;;;;;;;14.77;13.48;;;;;;;19.75;67.64;101265.22;5022932;28;20287;-76
2023/06/10 05:32:55;;;;;;;15.35;13.77;;;;;;;19.83;67.25;101260.91;5023201;28;20025;-69
2023/06/10 05:35:20;;;;;;;15.52;14.13;;;;;;;19.95;66.60;101266.28;5023093;28;20033;-70
2023/06/10 05:37:45;;;;;;;15.68;14.05;;;;;;;20.03;66.45;101261.94;5023118;28;20122;-72
2023/06/10 05:40:11;;;;;;;15.88;14.05;;;;;;;20.09;65.61;101257.84;5022661;28;20113;-73
2023/06/10 05:42:36;;;;;;;15.60;14.05;;;;;;;20.24;65.04;101261.97;5012528;28;20105;-71
2023/06/10 05:45:03;;;;;;;14.75;13.32;;;;;;;20.26;64.78;101268.09;5023278;28;20030;-71
2023/06/10 05:47:28;;;;;;;15.68;14.07;;;;;;;20.35;65.02;101266.44;5023063;28;20116;-69
2023/06/10 05:49:54;;;;;;;15.68;14.02;;;;;;;20.41;64.63;101265.94;5023584;28;20041;-69
2023/06/10 05:52:19;;;;;;;15.40;13.88;;;;;;;20.52;64.11;101270.44;5022727;28;20036;-74
2023/06/10 05:54:45;;;;;;;15.60;14.05;;;;;;;20.53;63.48;101261.34;5004863;28;20049;-74
2023/06/10 05:57:10;;;;;;;15.80;14.30;;;;;;;20.64;63.08;101267.53;5021292;28;20105;-73
2023/06/10 05:59:36;;;;;;;14.77;13.35;;;;;;;20.81;62.95;101271.47;5018647;28;20037;-73
2023/06/10 06:02:02;;;;;;;14.77;13.30;;;;;;;21.01;63.16;101267.03;4989164;28;20112;-69
2023/06/10 06:04:27;;;;;;;15.30;13.68;;;;;;;21.13;61.78;101262.38;5022924;28;20543;-75
2023/06/10 06:06:52;;;;;;;16.35;14.63;;;;;;;21.17;60.89;101263.81;5022978;28;20029;-72
2023/06/10 06:09:18;;;;;;;17.75;13.90;;;;;;;21.33;60.08;101263.34;5022751;28;20233;-70
2023/06/10 06:11:43;;;;;;;17.00;13.07;;;;;;;21.47;59.97;101272.94;5030450;28;20423;-73
2023/06/10 06:14:08;;;;;;;16.17;13.82;;;;;;;21.79;59.40;101279.00;5026168;28;20034;-71
2023/06/10 06:16:34;;;;;;;14.75;13.27;;;;;;;21.97;58.64;101275.59;5021358;28;20018;-70
2023/06/10 06:18:59;;;;;;;14.23;12.82;;;;;;;22.24;58.54;101266.75;5017574;28;20017;-75
2023/06/10 06:21:25;;;;;;;14.60;13.10;;;;;;;22.43;56.96;101274.03;5021470;28;20047;-70
2023/06/10 06:23:50;;;;;;;13.63;12.32;;;;;;;22.53;56.59;101272.16;5021231;28;20053;-70
2023/06/10 06:26:15;;;;;;;14.07;12.77;;;;;;;22.60;56.19;101276.88;5021075;28;20037;-76
2023/06/10 06:28:40;;;;;;;15.00;13.30;;;;;;;22.71;55.42;101273.16;5022445;28;20037;-71
2023/06/10 06:31:06;;;;;;;14.50;12.98;;;;;;;22.86;54.64;101274.38;5014413;28;20119;-76
2023/06/10 06:33:32;;;;;;;13.60;11.90;;;;;;;22.93;55.13;101276.53;5021231;28;20022;-77
2023/06/10 06:35:57;;;;;;;13.57;12.25;;;;;;;23.11;54.28;101275.59;5017084;28;20020;-73
2023/06/10 06:38:23;;;;;;;14.75;13.35;;;;;;;23.25;54.00;101278.88;5025911;28;20036;-75
2023/06/10 06:40:48;;;;;;;15.68;12.98;;;;;;;23.34;53.25;101286.94;5026947;28;20026;-78
2023/06/10 06:43:13;;;;;;;13.77;12.38;;;;;;;23.43;52.79;101284.34;5026488;28;20037;-73
2023/06/10 06:45:38;;;;;;;12.55;11.27;;;;;;;23.53;52.50;101285.13;5026222;28;20041;-72
2023/06/10 06:48:05;;;;;;;13.75;11.95;;;;;;;23.59;51.96;101285.41;5024853;28;20033;-75
2023/06/10 06:50:30;;;;;;;12.43;11.13;;;;;;;23.76;51.32;101286.47;5026193;28;20040;-73
2023/06/10 06:52:56;;;;;;;12.68;11.40;;;;;;;23.84;51.21;101288.41;5014711;28;20018;-74
2023/06/10 06:55:21;;;;;;;12.25;11.15;;;;;;;23.92;50.78;101287.66;5026979;28;20278;-70
2023/06/10 06:57:46;;;;;;;12.98;11.68;;;;;;;24.03;50.58;101288.25;5025781;28;20312;-74
2023/06/10 07:00:12;;;;;;;12.57;11.25;;;;;;;24.05;50.36;101285.41;5025894;28;20176;-75
2023/06/10 07:02:37;;;;;;;13.68;11.40;;;;;;;24.28;50.47;101286.63;5025032;28;20033;-72
2023/06/10 07:05:03;;;;;;;12.20;10.93;;;;;;;24.40;50.18;101292.72;5025004;28;20026;-74
2023/06/10 07:07:29;;;;;;;13.07;10.68;;;;;;;24.64;49.70;101300.22;5024496;28;20029;-78
2023/06/10 07:09:57;;;;;;;11.80;10.65;;;;;;;24.82;47.97;101295.59;5016072;28;20117;-70
2023/06/10 07:12:23;;;;;;;11.68;10.48;;;;;;;24.77;48.29;101295.22;5019596;28;20057;-73
2023/06/10 07:14:50;;;;;;;11.73;10.20;;;;;;;24.99;47.25;101302.00;5020896;28;20527;-74
2023/06/10 07:17:17;;;;;;;11.48;9.77;;;;;;;25.28;47.69;101298.94;5022480;28;20269;-74
2023/06/10 07:19:43;;;;;;;11.10;10.00;;;;;;;25.31;45.91;101301.34;4998631;28;20026;-70
2023/06/10 07:22:08;;;;;;;11.27;10.07;;;;;;;25.31;45.17;101295.91;5019341;28;21156;-70
2023/06/10 07:24:33;;;;;;;12.23;9.90;;;;;;;25.66;45.03;101304.03;5018823;28;20045;-74
2023/06/10 07:26:59;;;;;;;11.52;9.75;;;;;;;26.03;44.35;101306.38;5021716;28;20025;-69
2023/06/10 07:29:27;;;;;;;13.52;10.43;;;;;;;26.16;43.33;101309.47;5016725;28;20569;-69
2023/06/10 07:31:53;;;;;;;10.02;9.13;;;;;;;26.48;42.93;101311.41;5019648;28;20036;-74
2023/06/10 07:34:18;;;;;;;11.27;9.18;;;;;;;26.78;41.85;101309.00;5016827;28;20288;-70
2023/06/10 07:36:44;;;;;;;12.75;9.98;;;;;;;26.91;41.08;101314.78;5023854;28;20034;-76
2023/06/10 07:39:10;;;;;;;10.43;8.75;;;;;;;26.92;40.96;101310.16;5006886;28;20068;-77
2023/06/10 07:41:35;;;;;;;9.85;8.88;;;;;;;27.34;40.01;101306.31;5005541;28;20025;-75
2023/06/10 07:44:00;;;;;;;10.40;9.38;;;;;;;27.63;39.61;101302.97;5015876;28;20021;-75
2023/06/10 07:46:27;;;;;;;9.88;8.98;;;;;;;28.14;39.25;101309.72;5023034;28;20425;-73
2023/06/10 07:48:53;;;;;;;14.35;9.85;;;;;;;28.42;37.72;101309.19;5019851;28;20527;-77
2023/06/10 07:51:19;;;;;;;12.20;9.45;;;;;;;28.72;37.27;101307.41;5022663;28;20136;-73
2023/06/10 07:53:44;;;;;;;9.55;8.60;;;;;;;29.15;37.07;101311.25;5017218;28;20536;-74
2023/06/10 07:56:09;;;;;;;9.85;8.45;;;;;;;29.63;36.39;101308.97;5023212;28;20084;-72
2023/06/10 07:58:35;;;;;;;11.40;9.02;;;;;;;29.59;35.10;101313.13;5025017;28;20033;-74
2023/06/10 08:01:00;;;;;;;10.38;9.07;;;;;;;29.85;34.99;101304.41;5022344;28;20037;-74
2023/06/10 08:03:25;;;;;;;10.15;8.63;;;;;;;30.30;34.01;101312.47;5015871;28;20082;-71
2023/06/10 08:05:51;;;;;;;9.38;8.38;;;;;;;30.30;33.63;101306.97;5015333;28;20088;-78
2023/06/10 08:08:16;;;;;;;8.93;8.07;;;;;;;30.92;33.82;101309.03;5019751;28;20026;-77
2023/06/10 08:10:41;;;;;;;9.02;8.23;;;;;;;31.22;32.60;101313.22;5018645;28;20037;-75
2023/06/10 08:13:08;;;;;;;9.85;8.10;;;;;;;31.48;31.95;101307.06;5019397;28;20443;-75
2023/06/10 08:15:33;;;;;;;10.68;8.20;;;;;;;31.64;31.40;101311.34;5021316;28;20029;-79
2023/06/10 08:17:58;;;;;;;8.75;7.85;;;;;;;31.94;31.07;101302.84;5015213;28;20442;-74
2023/06/10 08:20:24;;;;;;;8.15;7.35;;;;;;;32.17;30.43;101306.03;4994499;28;20480;-72
2023/06/10 08:22:50;;;;;;;8.80;7.90;;;;;;;32.43;29.59;101308.00;5012488;28;20102;-77
2023/06/10 08:25:15;;;;;;;8.70;7.90;;;;;;;33.03;28.62;101310.78;5022957;28;20515;-75
2023/06/10 08:27:40;;;;;;;8.48;7.43;;;;;;;33.43;29.00;101311.50;5024542;28;20480;-76
2023/06/10 08:30:07;;;;;;;8.32;7.53;;;;;;;33.72;27.40;101315.66;5019080;28;20488;-72
2023/06/10 08:32:32;;;;;;;9.15;7.43;;;;;;;34.12;27.67;101315.47;5027667;28;20033;-74
2023/06/10 08:34:57;;;;;;;9.13;7.28;;;;;;;34.61;26.59;101313.00;5009633;28;20045;-70
2023/06/10 08:37:24;;;;;;;8.00;6.70;;;;;;;34.81;25.94;101316.44;5018996;28;20029;-73
2023/06/10 08:39:49;;;;;;;9.10;7.93;;;;;;;34.65;26.01;101315.09;5023586;28;20037;-73
2023/06/10 08:42:39;;;;;;;7.13;6.43;;;;;;;34.92;27.20;101312.09;5015115;28;20044;-76
2023/06/10 08:45:08;;;;;;;7.57;6.70;;;;;;;34.78;26.12;101314.16;5016094;28;20057;-75
2023/06/10 08:47:36;;;;;;;7.90;6.90;;;;;;;34.77;25.37;101312.44;5017162;28;20031;-72
2023/06/10 08:50:05;;;;;;;7.28;6.38;;;;;;;35.07;25.25;101314.53;5015262;28;20022;-71
2023/06/10 08:52:37;;;;;;;7.22;6.53;;;;;;;35.49;25.41;101314.72;5018083;28;20091;-77
2023/06/10 08:55:11;;;;;;;8.30;6.57;;;;;;;35.85;24.93;101317.44;5017308;28;20112;-75
2023/06/10 08:57:36;;;;;;;9.18;7.15;;;;;;;35.91;24.66;101312.91;5019116;28;20247;-76
2023/06/10 09:00:04;;;;;;;7.95;6.93;;;;;;;36.04;24.00;101311.91;5016120;28;20544;-71
2023/06/10 09:02:31;;;;;;;8.57;7.10;;;;;;;36.48;23.94;101313.34;5002500;28;20048;-72
2023/06/10 09:04:57;;;;;;;7.75;6.78;;;;;;;36.60;23.59;101311.44;5011448;28;20094;-72
2023/06/10 09:07:23;;;;;;;8.20;6.43;;;;;;;37.03;22.90;101313.03;5016929;28;20074;-73
2023/06/10 09:09:49;;;;;;;6.93;6.22;;;;;;;37.03;22.55;101314.97;5000633;28;20107;-75
2023/06/10 09:12:15;;;;;;;7.80;6.15;;;;;;;37.35;22.48;101312.66;5016119;28;20017;-78
2023/06/10 09:14:41;;;;;;;12.73;6.43;;;;;;;37.29;22.51;101320.03;5018098;28;20296;-74
2023/06/10 09:17:07;;;;;;;8.52;6.53;;;;;;;37.66;21.98;101305.81;5013720;28;20043;-75
2023/06/10 09:19:32;;;;;;;7.10;6.40;;;;;;;37.67;21.75;101312.25;4990417;28;20042;-73
2023/06/10 09:21:58;;;;;;;6.97;6.28;;;;;;;37.67;21.34;101306.69;5012129;28;20021;-74
2023/06/10 09:24:24;;;;;;;7.75;6.95;;;;;;;37.69;21.76;101313.66;5013441;28;20056;-78
2023/06/10 09:26:50;;;;;;;6.97;6.38;;;;;;;38.17;20.89;101308.75;5023618;28;20096;-76
2023/06/10 09:29:16;;;;;;;6.47;5.88;;;;;;;38.18;20.68;101304.91;5020557;28;20140;-77
2023/06/10 09:31:44;;;;;;;7.90;6.40;;;;;;;38.19;20.47;101306.59;5012602;28;20021;-75
2023/06/10 09:34:14;;;;;;;9.15;5.85;;;;;;;38.57;19.94;101305.88;5019351;28;20188;-79
2023/06/10 09:36:41;;;;;;;6.82;6.13;;;;;;;38.68;20.09;101310.50;5023458;28;20032;-81
2023/06/10 09:39:15;;;;;;;7.95;5.82;;;;;;;39.15;19.95;101309.28;5011864;28;20201;-75
2023/06/10 09:41:42;;;;;;;6.88;6.07;;;;;;;38.99;19.09;101311.84;5016349;28;20037;-75
2023/06/10 09:44:15;;;;;;;8.77;6.10;;;;;;;38.99;19.79;101311.84;5003336;28;20021;-75
2023/06/10 09:46:41;;;;;;;7.32;5.72;;;;;;;39.37;19.20;101307.38;5022957;28;20073;-75
2023/06/10 09:49:06;;;;;;;6.50;5.90;;;;;;;39.76;19.27;101302.59;5011262;28;20067;-79
2023/06/10 09:51:32;;;;;;;7.28;6.25;;;;;;;39.86;18.64;101303.81;5011856;28;20029;-78
2023/06/10 09:53:58;;;;;;;7.68;6.38;;;;;;;40.09;18.71;101295.13;5023822;28;20026;-76
2023/06/10 09:56:35;;;;;;;6.47;5.75;;;;;;;40.85;19.15;101294.97;5022967;28;20030;-77
2023/06/10 09:59:01;;;;;;;6.68;6.00;;;;;;;41.12;18.43;101288.44;5023176;28;20104;-75
2023/06/10 10:01:26;;;;;;;7.03;6.25;;;;;;;41.27;18.06;101294.13;5023354;28;20082;-73
2023/06/10 10:03:52;;;;;;;7.93;6.25;;;;;;;41.25;17.42;101294.38;5011374;28;20124;-77
2023/06/10 10:06:18;;;;;;;6.30;5.60;;;;;;;41.33;17.28;101286.59;5019104;28;20081;-78
2023/06/10 10:08:50;;;;;;;6.63;6.03;;;;;;;41.18;18.34;101287.34;5011472;28;20531;-82
2023/06/10 10:11:23;;;;;;;7.82;6.30;;;;;;;41.51;17.84;101288.91;5022389;28;21233;-82
2023/06/10 10:13:53;;;;;;;6.75;6.05;;;;;;;41.85;17.33;101292.13;5020541;28;20064;-82
2023/06/10 10:16:29;;;;;;;7.60;5.70;;;;;;;42.21;17.83;101294.97;5012159;28;20030;-75
2023/06/10 10:19:04;;;;;;;8.60;5.80;;;;;;;41.72;17.50;101289.81;5022339;28;20025;-77
2023/06/10 10:21:35;;;;;;;8.32;6.30;;;;;;;41.69;17.16;101293.19;5023266;28;20133;-80
2023/06/10 10:24:12;;;;;;;7.82;5.78;;;;;;;41.77;17.50;101295.44;5022679;28;20048;-77
2023/06/10 10:26:38;;;;;;;6.28;5.68;;;;;;;41.37;17.82;101282.13;5021797;28;20039;-81
2023/06/10 10:29:24;;;;;;;6.35;5.75;;;;;;;41.94;18.04;101287.69;5015683;28;20273;-79
2023/06/10 10:31:53;;;;;;;7.03;6.32;;;;;;;41.62;17.39;101276.66;5021601;28;20152;-75
2023/06/10 10:34:24;;;;;;;7.03;5.82;;;;;;;41.89;17.25;101279.28;5020597;28;20045;-78
2023/06/10 10:36:50;;;;;;;9.18;6.35;;;;;;;42.39;16.75;101286.06;5019707;28;20134;-78
2023/06/10 10:39:16;;;;;;;6.60;6.10;;;;;;;42.55;16.65;101284.06;5022721;28;20025;-78
2023/06/10 10:41:42;;;;;;;7.85;6.20;;;;;;;42.99;16.02;101283.47;5021988;28;20053;-78
2023/06/10 10:44:09;;;;;;;7.78;6.95;;;;;;;43.27;16.70;101282.00;5022943;28;20053;-75
2023/06/10 10:46:49;;;;;;;6.25;5.65;;;;;;;43.64;16.34;101278.72;5021464;28;20033;-78
2023/06/10 10:49:15;;;;;;;6.72;6.13;;;;;;;43.17;16.37;101285.66;5005199;28;20045;-77
2023/06/10 10:52:01;;;;;;;6.43;5.80;;;;;;;43.86;16.64;101285.94;5019414;28;20353;-75
2023/06/10 10:54:32;;;;;;;7.03;6.25;;;;;;;43.95;16.42;101281.38;5016839;28;20045;-76
2023/06/10 10:57:12;;;;;;;6.50;5.90;;;;;;;43.94;16.00;101283.34;5023123;28;20032;-76
2023/06/10 10:59:51;;;;;;;6.43;5.93;;;;;;;43.76;16.47;101278.38;5022722;28;20043;-78
2023/06/10 11:02:32;;;;;;;5.97;5.47;;;;;;;43.95;16.36;101272.97;5023118;28;20582;-79
2023/06/10 11:05:00;;;;;;;6.80;6.20;;;;;;;43.54;15.24;101267.59;5010138;28;20056;-77
2023/06/10 11:07:29;;;;;;;7.45;6.53;;;;;;;43.57;15.45;101269.81;5004585;28;20178;-80
2023/06/10 11:10:09;;;;;;;6.50;5.90;;;;;;;43.74;16.13;101270.28;5017825;28;20033;-81
2023/06/10 11:12:45;;;;;;;6.90;5.57;;;;;;;43.54;15.84;101272.38;5007679;28;20030;-75
2023/06/10 11:15:11;;;;;;;6.82;6.13;;;;;;;43.92;15.33;101280.00;5022026;28;20176;-78